createdAt,value
2019-03-01T00:00:13.627Z,100475.02
2019-03-01T00:02:42.111Z,100475.86
2019-03-01T00:05:31.722Z,100475.86
2019-03-01T00:08:11.593Z,100469.09
2019-03-01T00:10:45.874Z,100470.91
2019-03-01T00:13:32.559Z,100469.36
2019-03-01T00:16:09.621Z,100459.52
2019-03-01T00:18:47.159Z,100463.16
2019-03-01T00:21:30.253Z,100462.03
2019-03-01T00:24:27.271Z,100473.07
2019-03-01T00:27:10.482Z,100464.53
2019-03-01T00:30:12.170Z,100467.06
2019-03-01T00:32:46.243Z,100467.78
2019-03-01T00:35:32.879Z,100472.52
2019-03-01T00:38:20.973Z,100469.03
2019-03-01T00:40:52.473Z,100471.03
2019-03-01T00:43:35.657Z,100465.47
2019-03-01T00:46:04.267Z,100471.20
2019-03-01T00:48:32.778Z,100470.91
2019-03-01T00:51:01.226Z,100463.22
2019-03-01T00:53:29.643Z,100461.20
2019-03-01T00:55:58.080Z,100463.02
2019-03-01T00:58:26.555Z,100462.88
2019-03-01T01:00:55.000Z,100464.48
2019-03-01T01:03:23.522Z,100455.61
2019-03-01T01:05:51.963Z,100451.55
2019-03-01T01:08:20.377Z,100446.27
2019-03-01T01:10:48.794Z,100453.86
2019-03-01T01:13:17.253Z,100450.59
2019-03-01T01:15:48.834Z,100440.74
2019-03-01T01:18:17.201Z,100440.73
2019-03-01T01:20:45.650Z,100438.59
2019-03-01T01:23:14.063Z,100445.72
2019-03-01T01:25:42.503Z,100434.94
2019-03-01T01:28:10.930Z,100431.89
2019-03-01T01:30:39.358Z,100421.82
2019-03-01T01:33:07.814Z,100428.67
2019-03-01T01:35:36.333Z,100425.78
2019-03-01T01:38:04.800Z,100419.08
2019-03-01T01:40:33.267Z,100423.04
2019-03-01T01:43:01.755Z,100410.54
2019-03-01T01:45:30.169Z,100416.59
2019-03-01T01:47:58.602Z,100408.61
2019-03-01T01:50:27.009Z,100399.56
2019-03-01T01:52:55.416Z,100407.34
2019-03-01T01:55:23.856Z,100396.91
2019-03-01T01:57:52.254Z,100398.08
2019-03-01T02:00:20.673Z,100391.53
2019-03-01T02:02:49.106Z,100390.72
2019-03-01T02:05:17.584Z,100391.11
2019-03-01T02:07:45.999Z,100383.35
2019-03-01T02:10:14.445Z,100385.44
2019-03-01T02:12:42.862Z,100383.32
2019-03-01T02:15:13.475Z,100375.08
2019-03-01T02:17:41.865Z,100368.61
2019-03-01T02:20:12.337Z,100372.72
2019-03-01T02:22:40.877Z,100374.91
2019-03-01T02:25:11.738Z,100363.75
2019-03-01T02:27:40.143Z,100365.31
2019-03-01T02:30:14.514Z,100356.91
2019-03-01T02:32:44.578Z,100353.83
2019-03-01T02:35:15.065Z,100359.77
2019-03-01T02:37:43.457Z,100361.63
2019-03-01T02:40:13.861Z,100361.95
2019-03-01T02:42:42.298Z,100354.84
2019-03-01T02:45:18.907Z,100354.59
2019-03-01T02:47:47.345Z,100347.97
2019-03-01T02:50:18.236Z,100344.57
2019-03-01T02:52:46.891Z,100337.48
2019-03-01T02:55:17.455Z,100334.47
2019-03-01T02:57:45.860Z,100333.03
2019-03-01T03:00:17.272Z,100333.64
2019-03-01T03:02:45.744Z,100331.39
2019-03-01T03:05:23.454Z,100321.73
2019-03-01T03:07:53.792Z,100317.33
2019-03-01T03:10:22.191Z,100321.20
2019-03-01T03:12:52.870Z,100312.69
2019-03-01T03:15:28.656Z,100314.28
2019-03-01T03:17:57.117Z,100314.13
2019-03-01T03:20:25.531Z,100315.31
2019-03-01T03:22:53.947Z,100310.92
2019-03-01T03:25:22.453Z,100304.34
2019-03-01T03:27:50.844Z,100307.02
2019-03-01T03:30:20.417Z,100300.17
2019-03-01T03:32:48.907Z,100303.25
2019-03-01T03:35:17.349Z,100296.34
2019-03-01T03:37:45.752Z,100297.66
2019-03-01T03:40:15.587Z,100294.39
2019-03-01T03:42:44.806Z,100293.48
2019-03-01T03:45:19.179Z,100285.04
2019-03-01T03:47:47.565Z,100287.03
2019-03-01T03:50:16.613Z,100284.09
2019-03-01T03:52:45.159Z,100285.61
2019-03-01T03:55:16.113Z,100282.66
2019-03-01T03:57:44.866Z,100282.47
2019-03-01T04:00:18.569Z,100268.41
2019-03-01T04:02:47.151Z,100273.45
2019-03-01T04:05:15.741Z,100262.66
2019-03-01T04:07:44.527Z,100262.36
2019-03-01T04:10:13.440Z,100265.56
2019-03-01T04:12:41.820Z,100254.68
2019-03-01T04:15:15.131Z,100255.52
2019-03-01T04:17:43.632Z,100254.62
2019-03-01T04:20:14.882Z,100253.53
2019-03-01T04:22:43.311Z,100250.42
2019-03-01T04:25:12.010Z,100248.07
2019-03-01T04:27:40.421Z,100243.08
2019-03-01T04:30:12.220Z,100243.84
2019-03-01T04:32:40.643Z,100241.20
2019-03-01T04:35:09.202Z,100244.98
2019-03-01T04:37:37.635Z,100239.94
2019-03-01T04:40:08.567Z,100235.02
2019-03-01T04:42:37.002Z,100238.62
2019-03-01T04:45:08.145Z,100238.43
2019-03-01T04:47:36.577Z,100225.77
2019-03-01T04:50:07.211Z,100225.86
2019-03-01T04:52:36.125Z,100228.17
2019-03-01T04:55:09.959Z,100223.33
2019-03-01T04:57:38.556Z,100222.97
2019-03-01T05:00:18.302Z,100219.64
2019-03-01T05:02:46.741Z,100222.20
2019-03-01T05:05:16.040Z,100214.73
2019-03-01T05:07:44.687Z,100212.91
2019-03-01T05:10:14.070Z,100212.58
2019-03-01T05:12:42.715Z,100209.05
2019-03-01T05:15:16.395Z,100207.36
2019-03-01T05:17:44.810Z,100201.19
2019-03-01T05:20:13.541Z,100203.53
2019-03-01T05:22:42.192Z,100198.88
2019-03-01T05:25:11.530Z,100202.06
2019-03-01T05:27:40.081Z,100200.98
2019-03-01T05:30:11.553Z,100205.43
2019-03-01T05:32:39.983Z,100206.26
2019-03-01T05:35:08.814Z,100202.98
2019-03-01T05:37:37.405Z,100207.63
2019-03-01T05:40:08.859Z,100201.43
2019-03-01T05:42:37.248Z,100204.58
2019-03-01T05:45:08.761Z,100198.48
2019-03-01T05:47:37.142Z,100194.79
2019-03-01T05:50:11.307Z,100194.06
2019-03-01T05:52:39.715Z,100198.44
2019-03-01T05:55:09.779Z,100191.85
2019-03-01T05:57:57.550Z,100193.03
2019-03-01T06:00:25.975Z,100189.81
2019-03-01T06:03:03.194Z,100189.43
2019-03-01T06:05:31.714Z,100192.97
2019-03-01T06:08:09.502Z,100191.06
2019-03-01T06:10:41.038Z,100185.86
2019-03-01T06:13:27.699Z,100188.87
2019-03-01T06:16:15.752Z,100183.07
2019-03-01T06:19:04.705Z,100187.58
2019-03-01T06:21:55.549Z,100193.52
2019-03-01T06:24:32.744Z,100196.71
2019-03-01T06:27:06.763Z,100194.84
2019-03-01T06:29:38.256Z,100198.72
2019-03-01T06:32:21.971Z,100199.33
2019-03-01T06:35:17.564Z,100200.00
2019-03-01T06:38:28.309Z,100199.07
2019-03-01T06:41:26.362Z,100203.15
2019-03-01T06:44:15.086Z,100197.97
2019-03-01T06:46:53.834Z,100203.39
2019-03-01T06:49:23.927Z,100193.56
2019-03-01T06:51:52.334Z,100195.03
2019-03-01T06:54:20.760Z,100194.33
2019-03-01T06:56:49.179Z,100192.67
2019-03-01T06:59:17.630Z,100198.75
2019-03-01T07:01:46.409Z,100191.75
2019-03-01T07:04:15.010Z,100185.05
2019-03-01T07:06:43.469Z,100189.03
2019-03-01T07:09:11.903Z,100186.16
2019-03-01T07:11:40.384Z,100185.70
2019-03-01T07:14:08.822Z,100188.52
2019-03-01T07:16:37.227Z,100191.19
2019-03-01T07:19:05.639Z,100187.88
2019-03-01T07:21:34.059Z,100196.22
2019-03-01T07:24:02.600Z,100202.36
2019-03-01T07:26:31.210Z,100200.73
2019-03-01T07:28:59.652Z,100194.30
2019-03-01T07:31:28.088Z,100194.23
2019-03-01T07:33:56.497Z,100197.30
2019-03-01T07:36:24.980Z,100197.98
2019-03-01T07:38:53.410Z,100196.02
2019-03-01T07:41:21.860Z,100199.50
2019-03-01T07:43:50.310Z,100202.22
2019-03-01T07:46:18.855Z,100194.39
2019-03-01T07:48:47.291Z,100200.48
2019-03-01T07:51:15.868Z,100200.55
2019-03-01T07:53:44.299Z,100200.48
2019-03-01T07:56:12.797Z,100205.64
2019-03-01T07:58:41.208Z,100207.81
2019-03-01T08:01:09.790Z,100207.09
2019-03-01T08:03:38.218Z,100200.75
2019-03-01T08:06:06.683Z,100213.52
2019-03-01T08:08:38.996Z,100211.59
2019-03-01T08:11:05.266Z,100214.58
2019-03-01T08:13:33.683Z,100218.72
2019-03-01T08:16:02.193Z,100217.05
2019-03-01T08:18:30.621Z,100219.31
2019-03-01T08:20:59.028Z,100220.78
2019-03-01T08:23:27.483Z,100215.66
2019-03-01T08:25:58.762Z,100216.75
2019-03-01T08:28:26.317Z,100213.95
2019-03-01T08:30:54.797Z,100215.03
2019-03-01T08:33:23.252Z,100217.14
2019-03-01T08:35:51.678Z,100217.47
2019-03-01T08:38:20.078Z,100215.80
2019-03-01T08:40:49.939Z,100217.80
2019-03-01T08:43:18.627Z,100218.05
2019-03-01T08:45:47.131Z,100225.62
2019-03-01T08:48:15.605Z,100223.11
2019-03-01T08:50:44.020Z,100230.67
2019-03-01T08:53:15.150Z,100229.72
2019-03-01T08:55:42.673Z,100228.97
2019-03-01T08:58:11.087Z,100232.06
2019-03-01T09:00:42.400Z,100232.75
2019-03-01T09:03:23.154Z,100233.55
2019-03-01T09:05:51.662Z,100235.98
2019-03-01T09:08:20.109Z,100241.17
2019-03-01T09:10:48.766Z,100238.36
2019-03-01T09:13:17.186Z,100233.91
2019-03-01T09:15:46.133Z,100235.60
2019-03-01T09:18:15.939Z,100233.11
2019-03-01T09:20:44.394Z,100230.33
2019-03-01T09:23:22.807Z,100238.48
2019-03-01T09:25:44.759Z,100237.64
2019-03-01T09:28:13.212Z,100229.23
2019-03-01T09:30:43.498Z,100232.63
2019-03-01T09:33:11.792Z,100229.27
2019-03-01T09:35:49.927Z,100238.30
2019-03-01T09:38:18.255Z,100240.28
2019-03-01T09:40:46.639Z,100239.80
2019-03-01T09:43:15.042Z,100228.23
2019-03-01T09:45:45.718Z,100237.24
2019-03-01T09:48:13.605Z,100233.95
2019-03-01T09:50:42.065Z,100245.13
2019-03-01T09:53:10.465Z,100249.27
2019-03-01T09:55:38.876Z,100251.89
2019-03-01T09:58:08.471Z,100243.28
2019-03-01T10:00:56.303Z,100246.13
2019-03-01T10:03:22.063Z,100252.28
2019-03-01T10:05:50.627Z,100251.59
2019-03-01T10:08:19.160Z,100252.77
2019-03-01T10:10:47.554Z,100256.94
2019-03-01T10:13:16.006Z,100256.59
2019-03-01T10:15:44.425Z,100255.90
2019-03-01T10:18:12.828Z,100264.22
2019-03-01T10:20:41.266Z,100272.88
2019-03-01T10:23:09.730Z,100270.52
2019-03-01T10:25:38.214Z,100278.84
2019-03-01T10:28:06.747Z,100275.33
2019-03-01T10:30:35.328Z,100281.17
2019-03-01T10:33:03.748Z,100283.99
2019-03-01T10:35:32.158Z,100287.64
2019-03-01T10:38:00.603Z,100296.61
2019-03-01T10:40:29.466Z,100294.14
2019-03-01T10:42:57.914Z,100299.45
2019-03-01T10:45:29.943Z,100300.34
2019-03-01T10:47:58.513Z,100306.20
2019-03-01T10:50:27.144Z,100310.03
2019-03-01T10:52:55.556Z,100307.38
2019-03-01T10:55:23.976Z,100304.70
2019-03-01T10:57:52.397Z,100310.39
2019-03-01T11:00:22.951Z,100311.89
2019-03-01T11:02:51.448Z,100306.38
2019-03-01T11:05:20.141Z,100312.27
2019-03-01T11:07:49.746Z,100313.19
2019-03-01T11:10:35.776Z,100317.06
2019-03-01T11:13:05.707Z,100316.44
2019-03-01T11:15:34.411Z,100318.44
2019-03-01T11:18:02.923Z,100321.77
2019-03-01T11:20:31.322Z,100318.94
2019-03-01T11:22:59.856Z,100318.80
2019-03-01T11:25:28.460Z,100324.05
2019-03-01T11:27:57.012Z,100325.42
2019-03-01T11:30:33.482Z,100321.44
2019-03-01T11:33:01.977Z,100318.28
2019-03-01T11:35:30.618Z,100322.42
2019-03-01T11:37:59.274Z,100329.72
2019-03-01T11:40:34.548Z,100330.98
2019-03-01T11:43:03.214Z,100336.77
2019-03-01T11:45:31.727Z,100341.87
2019-03-01T11:48:00.242Z,100339.09
2019-03-01T11:50:28.655Z,100349.09
2019-03-01T11:52:57.098Z,100349.53
2019-03-01T11:55:25.586Z,100349.28
2019-03-01T11:57:54.146Z,100346.46
2019-03-01T12:00:25.614Z,100350.66
2019-03-01T12:02:54.388Z,100351.31
2019-03-01T12:05:22.863Z,100349.05
2019-03-01T12:07:51.356Z,100347.05
2019-03-01T12:10:25.885Z,100348.40
2019-03-01T12:12:54.412Z,100346.72
2019-03-01T12:15:23.070Z,100345.50
2019-03-01T12:17:51.592Z,100340.71
2019-03-01T12:20:28.861Z,100336.09
2019-03-01T12:22:57.290Z,100343.52
2019-03-01T12:25:25.874Z,100340.28
2019-03-01T12:27:54.326Z,100334.12
2019-03-01T12:30:26.945Z,100342.02
2019-03-01T12:32:55.414Z,100337.89
2019-03-01T12:35:24.016Z,100342.61
2019-03-01T12:37:52.450Z,100345.73
2019-03-01T12:40:28.590Z,100342.95
2019-03-01T12:42:57.039Z,100337.77
2019-03-01T12:45:25.506Z,100338.28
2019-03-01T12:47:53.964Z,100338.39
2019-03-01T12:50:22.442Z,100335.33
2019-03-01T12:52:50.964Z,100351.07
2019-03-01T12:55:23.908Z,100341.70
2019-03-01T12:57:52.547Z,100337.34
2019-03-01T13:00:35.657Z,100337.34
2019-03-01T13:03:05.108Z,100341.97
2019-03-01T13:05:34.372Z,100341.23
2019-03-01T13:08:02.873Z,100342.42
2019-03-01T13:10:36.794Z,100343.41
2019-03-01T13:13:08.181Z,100350.09
2019-03-01T13:15:34.986Z,100353.24
2019-03-01T13:18:03.757Z,100350.75
2019-03-01T13:20:33.830Z,100353.41
2019-03-01T13:23:04.937Z,100349.55
2019-03-01T13:25:33.056Z,100355.06
2019-03-01T13:28:01.541Z,100355.57
2019-03-01T13:30:32.687Z,100362.94
2019-03-01T13:33:03.445Z,100358.37
2019-03-01T13:35:32.267Z,100365.22
2019-03-01T13:38:00.776Z,100378.00
2019-03-01T13:40:29.357Z,100372.53
2019-03-01T13:42:57.863Z,100376.19
2019-03-01T13:45:26.996Z,100375.51
2019-03-01T13:47:55.493Z,100374.52
2019-03-01T13:50:24.113Z,100377.38
2019-03-01T13:52:52.671Z,100381.02
2019-03-01T13:55:23.711Z,100379.37
2019-03-01T13:57:51.744Z,100374.52
2019-03-01T14:00:22.138Z,100377.00
2019-03-01T14:02:50.928Z,100384.33
2019-03-01T14:05:19.727Z,100378.25
2019-03-01T14:07:48.819Z,100382.61
2019-03-01T14:10:24.497Z,100378.53
2019-03-01T14:12:52.969Z,100379.61
2019-03-01T14:15:21.368Z,100383.69
2019-03-01T14:17:49.908Z,100390.84
2019-03-01T14:20:21.024Z,100389.69
2019-03-01T14:22:49.830Z,100393.20
2019-03-01T14:25:18.269Z,100404.95
2019-03-01T14:27:46.875Z,100405.33
2019-03-01T14:30:25.440Z,100407.98
2019-03-01T14:32:56.906Z,100405.67
2019-03-01T14:35:25.877Z,100403.65
2019-03-01T14:37:55.218Z,100404.00
2019-03-01T14:40:23.729Z,100412.80
2019-03-01T14:42:52.350Z,100410.00
2019-03-01T14:45:33.715Z,100416.98
2019-03-01T14:48:05.190Z,100415.28
2019-03-01T14:50:33.633Z,100425.55
2019-03-01T14:53:03.132Z,100428.55
2019-03-01T14:55:37.250Z,100429.87
2019-03-01T14:58:23.636Z,100440.64
2019-03-01T15:01:19.018Z,100444.52
2019-03-01T15:03:49.905Z,100445.80
2019-03-01T15:06:19.097Z,100454.95
2019-03-01T15:08:47.893Z,100470.70
2019-03-01T15:11:16.475Z,100470.55
2019-03-01T15:13:45.364Z,100479.80
2019-03-01T15:16:13.950Z,100478.28
2019-03-01T15:18:43.222Z,100482.73
2019-03-01T15:21:12.827Z,100478.97
2019-03-01T15:23:41.307Z,100475.31
2019-03-01T15:26:09.933Z,100474.83
2019-03-01T15:28:53.788Z,100476.61
2019-03-01T15:31:20.090Z,100475.50
2019-03-01T15:33:48.594Z,100482.89
2019-03-01T15:36:17.791Z,100498.23
2019-03-01T15:38:47.237Z,100498.02
2019-03-01T15:41:15.640Z,100500.70
2019-03-01T15:43:44.081Z,100496.25
2019-03-01T15:46:14.445Z,100502.78
2019-03-01T15:48:42.850Z,100499.16
2019-03-01T15:51:11.608Z,100505.66
2019-03-01T15:53:40.274Z,100507.25
2019-03-01T15:56:08.781Z,100513.30
2019-03-01T15:58:37.211Z,100521.25
2019-03-01T16:01:11.118Z,100519.58
2019-03-01T16:03:38.874Z,100518.77
2019-03-01T16:06:10.358Z,100514.70
2019-03-01T16:08:37.485Z,100507.56
2019-03-01T16:11:05.958Z,100515.91
2019-03-01T16:13:34.599Z,100513.72
2019-03-01T16:16:03.046Z,100511.01
2019-03-01T16:18:31.451Z,100525.23
2019-03-01T16:21:01.887Z,100516.88
2019-03-01T16:23:30.338Z,100529.77
2019-03-01T16:25:59.472Z,100526.45
2019-03-01T16:28:31.277Z,100529.94
2019-03-01T16:30:58.099Z,100534.44
2019-03-01T16:33:29.724Z,100532.33
2019-03-01T16:35:56.682Z,100526.41
2019-03-01T16:38:25.142Z,100535.42
2019-03-01T16:40:53.621Z,100532.81
2019-03-01T16:43:22.214Z,100543.06
2019-03-01T16:45:53.333Z,100541.70
2019-03-01T16:48:20.858Z,100549.55
2019-03-01T16:50:49.327Z,100548.45
2019-03-01T16:53:17.693Z,100550.77
2019-03-01T16:55:46.460Z,100555.87
2019-03-01T16:58:15.035Z,100552.92
2019-03-01T17:00:43.723Z,100561.62
2019-03-01T17:03:17.896Z,100556.91
2019-03-01T17:05:46.481Z,100569.42
2019-03-01T17:08:15.094Z,100575.49
2019-03-01T17:10:43.501Z,100577.88
2019-03-01T17:13:11.930Z,100579.47
2019-03-01T17:15:40.343Z,100590.00
2019-03-01T17:18:12.299Z,100594.10
2019-03-01T17:20:39.032Z,100602.70
2019-03-01T17:23:07.467Z,100601.77
2019-03-01T17:25:35.886Z,100599.22
2019-03-01T17:28:04.533Z,100600.03
2019-03-01T17:30:33.035Z,100609.67
2019-03-01T17:33:01.734Z,100617.23
2019-03-01T17:35:30.219Z,100620.37
2019-03-01T17:37:58.626Z,100629.94
2019-03-01T17:40:29.419Z,100627.10
2019-03-01T17:42:57.382Z,100627.86
2019-03-01T17:45:26.762Z,100631.95
2019-03-01T17:47:55.552Z,100634.33
2019-03-01T17:50:24.057Z,100634.11
2019-03-01T17:52:52.707Z,100633.11
2019-03-01T17:55:24.365Z,100635.79
2019-03-01T17:57:53.258Z,100645.34
2019-03-01T18:00:37.238Z,100654.83
2019-03-01T18:03:06.180Z,100655.50
2019-03-01T18:05:37.069Z,100662.00
2019-03-01T18:08:05.188Z,100665.33
2019-03-01T18:10:33.721Z,100668.47
2019-03-01T18:13:02.733Z,100669.12
2019-03-01T18:15:31.295Z,100674.98
2019-03-01T18:17:59.863Z,100678.02
2019-03-01T18:20:28.385Z,100688.05
2019-03-01T18:22:59.275Z,100687.20
2019-03-01T18:25:27.271Z,100688.63
2019-03-01T18:27:55.798Z,100691.36
2019-03-01T18:30:30.000Z,100691.41
2019-03-01T18:32:58.571Z,100695.28
2019-03-01T18:35:27.282Z,100693.57
2019-03-01T18:37:56.063Z,100699.05
2019-03-01T18:40:24.764Z,100693.36
2019-03-01T18:42:53.259Z,100699.27
2019-03-01T18:45:22.846Z,100703.10
2019-03-01T18:47:51.297Z,100704.56
2019-03-01T18:50:36.674Z,100710.33
2019-03-01T18:53:05.214Z,100714.38
2019-03-01T18:55:33.718Z,100716.58
2019-03-01T18:58:02.150Z,100716.16
2019-03-01T19:00:42.375Z,100710.78
2019-03-01T19:03:11.458Z,100713.69
2019-03-01T19:05:41.191Z,100719.38
2019-03-01T19:08:09.799Z,100718.86
2019-03-01T19:10:38.243Z,100728.11
2019-03-01T19:13:06.899Z,100725.63
2019-03-01T19:15:35.624Z,100730.02
2019-03-01T19:18:05.212Z,100730.67
2019-03-01T19:20:51.218Z,100727.18
2019-03-01T19:23:19.677Z,100738.87
2019-03-01T19:25:48.191Z,100740.89
2019-03-01T19:28:16.632Z,100742.40
2019-03-01T19:30:45.933Z,100744.93
2019-03-01T19:33:17.207Z,100739.53
2019-03-01T19:35:45.805Z,100740.36
2019-03-01T19:38:14.227Z,100746.79
2019-03-01T19:40:43.523Z,100746.95
2019-03-01T19:43:13.194Z,100749.61
2019-03-01T19:45:41.632Z,100749.78
2019-03-01T19:48:10.087Z,100742.40
2019-03-01T19:50:39.537Z,100749.78
2019-03-01T19:53:08.110Z,100744.61
2019-03-01T19:55:36.630Z,100742.88
2019-03-01T19:58:05.317Z,100747.59
2019-03-01T20:00:34.499Z,100747.73
2019-03-01T20:03:06.601Z,100751.09
2019-03-01T20:05:41.274Z,100752.29
2019-03-01T20:08:09.850Z,100755.81
2019-03-01T20:10:38.311Z,100745.52
2019-03-01T20:13:06.839Z,100749.14
2019-03-01T20:15:35.398Z,100749.19
2019-03-01T20:18:06.634Z,100749.53
2019-03-01T20:20:34.353Z,100751.56
2019-03-01T20:23:03.000Z,100758.42
2019-03-01T20:25:31.471Z,100754.84
2019-03-01T20:27:59.983Z,100761.20
2019-03-01T20:30:33.300Z,100761.48
2019-03-01T20:33:01.745Z,100767.20
2019-03-01T20:35:30.186Z,100775.58
2019-03-01T20:38:00.093Z,100783.77
2019-03-01T20:40:28.966Z,100796.66
2019-03-01T20:43:01.259Z,100796.37
2019-03-01T20:45:31.231Z,100804.68
2019-03-01T20:47:59.839Z,100809.05
2019-03-01T20:50:28.300Z,100808.68
2019-03-01T20:52:56.974Z,100815.55
2019-03-01T20:55:25.428Z,100813.98
2019-03-01T20:57:53.873Z,100819.80
2019-03-01T21:00:26.098Z,100821.19
2019-03-01T21:02:54.762Z,100819.42
2019-03-01T21:05:25.150Z,100822.00
2019-03-01T21:07:54.114Z,100830.27
2019-03-01T21:10:27.456Z,100823.69
2019-03-01T21:12:55.873Z,100832.95
2019-03-01T21:15:24.656Z,100829.23
2019-03-01T21:17:56.990Z,100838.49
2019-03-01T21:20:23.327Z,100844.26
2019-03-01T21:22:51.823Z,100840.47
2019-03-01T21:25:24.536Z,100837.13
2019-03-01T21:27:53.043Z,100835.45
2019-03-01T21:30:29.195Z,100841.44
2019-03-01T21:32:57.701Z,100845.19
2019-03-01T21:35:26.196Z,100839.90
2019-03-01T21:37:54.799Z,100838.33
2019-03-01T21:40:23.205Z,100840.99
2019-03-01T21:42:52.786Z,100836.52
2019-03-01T21:45:26.039Z,100840.52
2019-03-01T21:47:54.662Z,100841.68
2019-03-01T21:50:23.250Z,100844.05
2019-03-01T21:52:51.691Z,100847.46
2019-03-01T21:55:25.034Z,100854.75
2019-03-01T21:57:53.342Z,100860.54
2019-03-01T22:00:29.885Z,100857.55
2019-03-01T22:02:56.567Z,100855.70
2019-03-01T22:05:25.103Z,100866.48
2019-03-01T22:07:53.503Z,100871.10
2019-03-01T22:10:22.099Z,100870.21
2019-03-01T22:12:50.637Z,100869.08
2019-03-01T22:15:29.875Z,100872.08
2019-03-01T22:17:58.417Z,100872.72
2019-03-01T22:20:26.905Z,100869.37
2019-03-01T22:22:55.320Z,100868.28
2019-03-01T22:25:23.827Z,100873.47
2019-03-01T22:27:52.232Z,100878.34
2019-03-01T22:30:33.451Z,100871.35
2019-03-01T22:33:01.866Z,100872.78
2019-03-01T22:35:30.270Z,100870.08
2019-03-01T22:38:01.109Z,100869.66
2019-03-01T22:40:29.494Z,100865.48
2019-03-01T22:42:58.171Z,100869.41
2019-03-01T22:45:26.598Z,100871.53
2019-03-01T22:47:55.270Z,100870.78
2019-03-01T22:50:23.940Z,100872.55
2019-03-01T22:52:52.384Z,100867.13
2019-03-01T22:55:21.160Z,100858.64
2019-03-01T22:57:49.818Z,100864.56
2019-03-01T23:00:48.169Z,100865.27
2019-03-01T23:03:18.918Z,100860.45
2019-03-01T23:05:47.854Z,100867.55
2019-03-01T23:08:16.269Z,100861.73
2019-03-01T23:10:44.867Z,100871.29
2019-03-01T23:13:16.907Z,100865.39
2019-03-01T23:15:44.580Z,100872.72
2019-03-01T23:18:13.209Z,100873.35
2019-03-01T23:20:42.065Z,100870.06
2019-03-01T23:23:10.481Z,100861.73
2019-03-01T23:25:38.975Z,100855.80
2019-03-01T23:28:08.086Z,100862.07
2019-03-01T23:30:37.677Z,100868.03
2019-03-01T23:33:06.122Z,100871.53
2019-03-01T23:35:34.913Z,100864.34
2019-03-01T23:38:03.334Z,100867.30
2019-03-01T23:40:32.821Z,100870.63
2019-03-01T23:43:02.178Z,100868.14
2019-03-01T23:45:30.591Z,100876.94
2019-03-01T23:47:58.992Z,100874.89
2019-03-01T23:50:27.821Z,100870.63
2019-03-01T23:52:59.050Z,100873.91
2019-03-01T23:55:26.465Z,100862.41
2019-03-01T23:57:54.989Z,100856.71
